Time;durP1;ratioP1;P1;durP2;ratioP2;P2;SDS_P1;SDS_P2;PMS_P1;PMS_P2;Temp;Humidity;BMP_temperature;BMP_pressure;BME280_temperature;BME280_humidity;BME280_pressure;Samples;Min_cycle;Max_cycle;Signal;HPM_P1;HPM_P2
2023/07/16 00:00:36;;;;;;;;;5.00;5.00;;;;;22.28;75.67;98101.47;4945423;28;101539;-90
2023/07/16 00:03:03;;;;;;;;;4.00;4.00;;;;;22.36;75.65;98115.44;4941783;28;105339;-88
2023/07/16 00:05:30;;;;;;;;;2.67;2.00;;;;;22.53;75.69;98148.06;4948190;28;101531;-87
2023/07/16 00:07:57;;;;;;;;;3.00;3.00;;;;;22.21;75.73;98099.03;4943704;28;103357;-89
2023/07/16 00:10:24;;;;;;;;;3.00;3.00;;;;;22.28;75.61;98112.50;4946596;28;102364;-89
2023/07/16 00:12:51;;;;;;;;;4.00;4.00;;;;;22.35;75.24;98122.06;4930996;28;102434;-89
2023/07/16 00:15:19;;;;;;;;;2.67;2.67;;;;;22.41;76.03;98139.38;4952836;28;101557;-90
2023/07/16 00:17:46;;;;;;;;;5.00;4.33;;;;;22.38;75.34;98137.22;4944556;28;103408;-89
2023/07/16 00:20:13;;;;;;;;;3.33;3.00;;;;;22.25;76.24;98116.63;4949032;28;101612;-88
2023/07/16 00:22:40;;;;;;;;;4.67;3.00;;;;;22.31;76.81;98128.44;4952572;28;101572;-89
2023/07/16 00:25:07;;;;;;;;;3.00;3.00;;;;;22.24;76.14;98129.56;4955217;28;101604;-88
2023/07/16 00:27:35;;;;;;;;;4.00;4.00;;;;;22.20;76.75;98119.41;4953389;28;108003;-88
2023/07/16 00:30:03;;;;;;;;;3.00;3.00;;;;;22.03;76.87;98084.03;4953235;28;102641;-90
2023/07/16 00:32:30;;;;;;;;;2.67;2.33;;;;;22.20;76.34;98123.00;4952259;28;101510;-90
2023/07/16 00:34:58;;;;;;;;;3.00;3.00;;;;;22.16;76.87;98126.63;4928519;28;101480;-89
2023/07/16 00:37:25;;;;;;;;;2.67;2.67;;;;;22.11;76.65;98112.91;4928540;28;103613;-90
2023/07/16 00:39:52;;;;;;;;;3.00;3.00;;;;;22.15;76.95;98122.25;4949786;28;101596;-89
2023/07/16 00:42:19;;;;;;;;;2.00;1.00;;;;;22.01;76.96;98102.81;4946768;28;101611;-89
2023/07/16 00:44:46;;;;;;;;;1.00;1.00;;;;;21.98;76.26;98108.84;4952457;28;101707;-89
2023/07/16 00:47:13;;;;;;;;;3.67;3.00;;;;;22.03;76.66;98122.59;4947407;28;103574;-90
2023/07/16 00:49:40;;;;;;;;;2.67;2.67;;;;;22.03;76.73;98128.09;4952245;28;102691;-90
2023/07/16 00:52:14;;;;;;;;;2.00;2.00;;;;;21.99;76.55;98121.53;4951807;28;101776;-90
2023/07/16 00:54:41;;;;;;;;;4.00;4.00;;;;;21.92;76.67;98121.00;4948192;28;101830;-90
2023/07/16 00:57:09;;;;;;;;;4.00;4.00;;;;;21.91;77.55;98130.38;4951368;28;103879;-90
2023/07/16 00:59:36;;;;;;;;;2.00;2.00;;;;;21.80;79.29;98109.50;4948579;28;101553;-89
2023/07/16 01:02:03;;;;;;;;;2.67;2.67;;;;;21.73;81.28;98117.28;4949855;28;101862;-88
2023/07/16 01:04:30;;;;;;;;;4.00;3.67;;;;;21.54;83.07;98108.03;4950751;28;101976;-90
2023/07/16 01:07:26;;;;;;;;;2.00;2.00;;;;;21.40;86.80;98118.00;4945604;28;103782;-90
2023/07/16 01:10:15;;;;;;;;;6.00;6.00;;;;;20.98;86.71;98113.75;4945058;28;101719;-89
2023/07/16 01:13:02;;;;;;;;;8.00;7.00;;;;;20.63;89.85;98120.13;4947347;28;101617;-91
2023/07/16 01:15:48;;;;;;;;;6.67;6.33;;;;;20.36;89.86;98092.16;4947056;28;101601;-89
2023/07/16 01:18:27;;;;;;;;;8.33;8.00;;;;;20.34;90.57;98111.69;4947369;28;107276;-90
2023/07/16 01:21:03;;;;;;;;;5.33;5.00;;;;;20.10;91.94;98085.00;4944774;28;102979;-89
2023/07/16 01:24:19;;;;;;;;;8.00;8.00;;;;;20.12;92.40;98115.78;4948803;28;101910;-90
2023/07/16 01:27:27;;;;;;;;;7.00;7.00;;;;;20.02;93.20;98098.19;4930851;28;102293;-90
2023/07/16 01:30:01;;;;;;;;;7.67;6.67;;;;;19.92;94.26;98102.84;4948306;28;107567;-89
2023/07/16 01:32:33;;;;;;;;;7.67;7.67;;;;;19.66;93.43;98060.03;4948537;28;102091;-90
2023/07/16 01:35:02;;;;;;;;;7.67;6.67;;;;;19.80;93.29;98080.34;4946015;28;101578;-91
2023/07/16 01:37:29;;;;;;;;;5.67;5.33;;;;;19.84;94.71;98092.41;4949283;28;101660;-89
2023/07/16 01:39:56;;;;;;;;;4.67;4.33;;;;;19.73;95.17;98093.50;4949094;28;103429;-89
2023/07/16 01:42:23;;;;;;;;;6.00;6.00;;;;;19.56;95.78;98088.25;4949218;28;101806;-91
2023/07/16 01:44:50;;;;;;;;;8.33;8.33;;;;;19.22;97.01;98070.59;4950250;28;102615;-89
2023/07/16 01:47:23;;;;;;;;;8.67;8.00;;;;;19.30;97.35;98089.25;4933379;28;101565;-89
2023/07/16 01:49:50;;;;;;;;;7.33;7.33;;;;;19.25;97.74;98083.75;4946959;28;103484;-88
2023/07/16 01:52:17;;;;;;;;;8.00;7.00;;;;;19.23;97.14;98089.50;4957607;28;101837;-87
2023/07/16 01:54:44;;;;;;;;;6.67;6.67;;;;;19.20;96.32;98087.31;4950050;28;102707;-89
2023/07/16 01:57:12;;;;;;;;;6.33;5.67;;;;;19.26;97.02;98089.00;4949809;28;102081;-89
2023/07/16 01:59:39;;;;;;;;;4.67;4.00;;;;;19.31;96.57;98102.72;4948295;28;103435;-89
2023/07/16 02:02:06;;;;;;;;;3.00;3.00;;;;;19.28;97.13;98092.25;4947645;28;102623;-89
2023/07/16 02:04:33;;;;;;;;;5.00;4.67;;;;;19.27;96.50;98096.13;4947504;28;101542;-88
2023/07/16 02:07:00;;;;;;;;;3.67;3.67;;;;;19.25;96.64;98089.25;4927273;28;102742;-88
2023/07/16 02:09:27;;;;;;;;;4.00;3.67;;;;;19.20;96.72;98087.31;4948244;28;102528;-88
2023/07/16 02:11:54;;;;;;;;;4.00;4.00;;;;;19.02;96.32;98063.13;4949582;28;102320;-88
2023/07/16 02:14:21;;;;;;;;;2.00;2.00;;;;;19.17;96.69;98101.56;4948532;28;101595;-88
2023/07/16 02:16:48;;;;;;;;;3.67;3.67;;;;;19.06;96.36;98084.25;4950977;28;101925;-88
2023/07/16 02:19:15;;;;;;;;;3.33;3.33;;;;;19.04;98.00;98093.84;4948409;28;103159;-88
2023/07/16 02:21:43;;;;;;;;;4.00;4.00;;;;;18.98;96.91;98083.94;4945716;28;101923;-89
2023/07/16 02:24:10;;;;;;;;;5.67;5.00;;;;;18.91;96.86;98075.16;4950602;28;101805;-88
2023/07/16 02:26:38;;;;;;;;;3.67;3.67;;;;;18.86;96.80;98069.66;4955619;28;101767;-87
2023/07/16 02:29:08;;;;;;;;;5.00;4.33;;;;;18.80;97.06;98067.97;4952333;28;107440;-88
2023/07/16 02:31:36;;;;;;;;;4.33;3.33;;;;;18.87;97.25;98090.44;4950587;28;101806;-88
2023/07/16 02:34:03;;;;;;;;;3.00;3.00;;;;;18.62;98.28;98063.78;4950198;28;101576;-88
2023/07/16 02:36:30;;;;;;;;;4.67;3.00;;;;;18.69;98.18;98078.88;4950184;28;105190;-89
2023/07/16 02:38:57;;;;;;;;;3.33;3.33;;;;;18.33;97.90;98030.44;4930926;28;103634;-88
2023/07/16 02:41:24;;;;;;;;;2.00;2.00;;;;;18.60;98.62;98077.72;4947999;28;101875;-88
2023/07/16 02:44:01;;;;;;;;;4.00;3.00;;;;;18.59;99.16;98088.97;4940829;28;101615;-88
2023/07/16 02:46:28;;;;;;;;;3.33;3.33;;;;;18.52;99.57;98083.66;4945893;28;101993;-88
2023/07/16 02:48:55;;;;;;;;;1.00;1.00;;;;;18.51;99.39;98092.97;4941802;28;103948;-89
2023/07/16 02:51:22;;;;;;;;;1.67;1.00;;;;;18.39;99.04;98084.13;4952750;28;101512;-89
2023/07/16 02:53:50;;;;;;;;;3.00;3.00;;;;;18.29;99.76;98067.63;4946158;28;102543;-88
2023/07/16 02:56:17;;;;;;;;;5.00;5.00;;;;;18.40;100.00;98091.25;4943885;28;101586;-89
2023/07/16 02:58:44;;;;;;;;;4.00;4.00;;;;;18.37;100.00;98099.97;4899274;28;103343;-88
2023/07/16 03:01:12;;;;;;;;;4.00;4.00;;;;;18.35;98.94;98104.09;4931546;28;101552;-88
2023/07/16 03:03:39;;;;;;;;;4.00;4.00;;;;;18.29;99.65;98092.28;4907484;28;101591;-88
2023/07/16 03:06:07;;;;;;;;;5.00;4.00;;;;;18.20;99.32;98078.25;4933490;28;102103;-89
2023/07/16 03:08:34;;;;;;;;;5.00;5.00;;;;;18.23;98.56;98085.97;4946794;28;104457;-89
2023/07/16 03:11:01;;;;;;;;;4.33;3.67;;;;;18.21;98.49;98093.59;4934592;28;101683;-89
2023/07/16 03:13:28;;;;;;;;;4.00;3.00;;;;;18.12;100.00;98097.91;4945941;28;102132;-89
2023/07/16 03:15:55;;;;;;;;;3.00;3.00;;;;;17.73;100.00;98053.53;4950207;28;102091;-89
2023/07/16 03:18:29;;;;;;;;;5.67;5.00;;;;;17.91;100.00;98103.47;4920212;28;103653;-88
2023/07/16 03:20:59;;;;;;;;;4.00;4.00;;;;;17.78;100.00;98083.69;4930097;28;101764;-88
2023/07/16 03:23:26;;;;;;;;;4.00;4.00;;;;;17.69;100.00;98071.56;4949383;28;101919;-89
2023/07/16 03:25:53;;;;;;;;;4.67;4.67;;;;;17.71;100.00;98085.78;4951329;28;101474;-88
2023/07/16 03:28:20;;;;;;;;;4.67;4.67;;;;;17.71;100.00;98088.50;4924311;28;103352;-88
2023/07/16 03:30:50;;;;;;;;;7.00;7.00;;;;;17.78;100.00;98097.34;4949243;28;102307;-88
2023/07/16 03:33:18;;;;;;;;;6.33;6.33;;;;;17.80;100.00;98100.63;4930539;28;102598;-88
2023/07/16 03:35:48;;;;;;;;;7.33;6.67;;;;;17.84;100.00;98109.97;4947728;28;101984;-89
2023/07/16 03:38:16;;;;;;;;;6.33;4.00;;;;;17.90;100.00;98104.53;4950115;28;103649;-90
2023/07/16 03:40:47;;;;;;;;;5.00;5.00;;;;;17.94;100.00;98098.28;4949908;28;101823;-88
2023/07/16 03:43:16;;;;;;;;;6.00;5.00;;;;;17.95;100.00;98105.41;4947256;28;102383;-88
2023/07/16 03:45:43;;;;;;;;;3.00;3.00;;;;;17.93;100.00;98106.75;4952120;28;107629;-89
2023/07/16 03:48:10;;;;;;;;;6.00;5.67;;;;;17.84;100.00;98109.13;4948698;28;108265;-89
2023/07/16 03:50:38;;;;;;;;;4.00;4.00;;;;;17.75;100.00;98097.84;4945616;28;102082;-88
2023/07/16 03:53:05;;;;;;;;;5.00;5.00;;;;;17.74;100.00;98092.66;4921221;28;102852;-89
2023/07/16 03:55:32;;;;;;;;;6.67;6.67;;;;;17.91;100.00;98125.34;4953755;28;101936;-89
2023/07/16 03:57:59;;;;;;;;;5.67;5.67;;;;;17.90;100.00;98118.22;4950965;28;103469;-89
2023/07/16 04:00:26;;;;;;;;;3.00;3.00;;;;;17.92;100.00;98110.59;4952014;28;101830;-88
2023/07/16 04:02:53;;;;;;;;;6.00;6.00;;;;;17.92;100.00;98110.59;4950730;28;101947;-89
2023/07/16 04:05:20;;;;;;;;;4.67;4.67;;;;;17.93;100.00;98112.22;4950136;28;101682;-90
2023/07/16 04:07:50;;;;;;;;;5.33;5.00;;;;;18.01;100.00;98109.03;4952232;28;104090;-89
2023/07/16 04:10:17;;;;;;;;;5.67;5.67;;;;;18.10;100.00;98123.88;4952347;28;101568;-89
2023/07/16 04:12:44;;;;;;;;;5.00;5.00;;;;;18.19;100.00;98133.28;4952146;28;102033;-89
2023/07/16 04:15:12;;;;;;;;;6.67;6.00;;;;;18.24;100.00;98136.00;4954107;28;101502;-89
2023/07/16 04:17:39;;;;;;;;;8.00;8.00;;;;;18.09;100.00;98105.81;4952653;28;107802;-89
2023/07/16 04:20:06;;;;;;;;;10.00;9.33;;;;;18.28;100.00;98135.22;4948476;28;101639;-89
2023/07/16 04:22:35;;;;;;;;;10.00;8.00;;;;;18.48;100.00;98151.00;4951829;28;101986;-88
2023/07/16 04:25:03;;;;;;;;;9.67;9.67;;;;;18.47;100.00;98137.56;4951118;28;101732;-91
2023/07/16 04:27:31;;;;;;;;;9.33;8.00;;;;;18.32;100.00;98104.63;4948376;28;103589;-89
2023/07/16 04:29:58;;;;;;;;;7.00;6.67;;;;;18.75;100.00;98152.84;4949447;28;101560;-89
2023/07/16 04:32:25;;;;;;;;;6.33;6.33;;;;;18.75;100.00;98139.97;4954335;28;101706;-90
2023/07/16 04:34:52;;;;;;;;;6.00;6.00;;;;;18.79;100.00;98148.50;4957888;28;101595;-87
2023/07/16 04:37:19;;;;;;;;;8.00;7.00;;;;;18.95;100.00;98166.69;4953610;28;103182;-90
2023/07/16 04:39:46;;;;;;;;;12.00;10.33;;;;;18.95;100.00;98152.97;4933259;28;101708;-90
2023/07/16 04:42:13;;;;;;;;;11.00;11.00;;;;;19.16;100.00;98177.47;4950690;28;102159;-90
2023/07/16 04:44:40;;;;;;;;;15.00;14.00;;;;;19.36;100.00;98168.50;4925765;28;101623;-91
2023/07/16 04:47:07;;;;;;;;;10.00;9.33;;;;;19.48;100.00;98149.97;4934694;28;102606;-90
2023/07/16 04:49:35;;;;;;;;;11.33;10.67;;;;;19.69;100.00;98145.34;4952285;28;101931;-90
2023/07/16 04:52:05;;;;;;;;;14.75;14.25;;;;;20.11;98.51;98178.09;4950412;28;102068;-89
2023/07/16 04:54:37;;;;;;;;;13.00;13.00;;;;;20.57;96.39;98172.63;4950476;28;102923;-90
2023/07/16 04:57:07;;;;;;;;;11.33;11.33;;;;;20.65;96.00;98155.59;4946766;28;103688;-89
2023/07/16 04:59:35;;;;;;;;;15.00;13.67;;;;;20.98;95.48;98160.47;4949047;28;102020;-91
2023/07/16 05:02:05;;;;;;;;;11.33;10.33;;;;;21.12;94.85;98134.03;4950730;28;102142;-92
2023/07/16 05:04:34;;;;;;;;;12.00;12.00;;;;;21.67;92.88;98155.00;4949843;28;102113;-92
2023/07/16 05:07:03;;;;;;;;;12.00;10.67;;;;;22.15;92.08;98174.56;4931979;28;104770;-91
2023/07/16 05:09:30;;;;;;;;;15.00;15.00;;;;;22.60;90.62;98176.13;4949208;28;101756;-91
2023/07/16 05:11:58;;;;;;;;;15.33;14.67;;;;;23.01;89.53;98169.13;4947337;28;101665;-91
2023/07/16 05:14:27;;;;;;;;;20.00;18.33;;;;;23.43;85.38;98164.78;4929189;28;101498;-90
2023/07/16 05:16:56;;;;;;;;;18.67;18.33;;;;;23.73;84.00;98164.44;4933905;28;103781;-91
2023/07/16 05:19:26;;;;;;;;;20.00;20.00;;;;;24.20;86.39;98170.97;4933464;28;101532;-90
2023/07/16 05:21:53;;;;;;;;;19.33;17.33;;;;;24.69;82.07;98189.78;4952576;28;101846;-91
2023/07/16 05:24:20;;;;;;;;;21.33;20.00;;;;;24.90;81.72;98166.25;4952739;28;101740;-90
2023/07/16 05:26:50;;;;;;;;;14.67;14.33;;;;;25.31;80.34;98191.16;4951306;28;103233;-89
2023/07/16 05:29:17;;;;;;;;;15.67;15.67;;;;;25.59;75.05;98187.31;4950279;28;103160;-90
2023/07/16 05:31:46;;;;;;;;;13.67;13.67;;;;;25.94;73.72;98187.66;4947049;28;102866;-90
2023/07/16 05:34:13;;;;;;;;;18.67;18.00;;;;;26.24;75.83;98183.44;4932968;28;102578;-92
2023/07/16 05:36:41;;;;;;;;;16.33;15.67;;;;;26.40;75.32;98163.34;4938332;28;107857;-88
2023/07/16 05:39:08;;;;;;;;;16.00;15.67;;;;;26.82;72.40;98180.59;4948603;28;101855;-88
2023/07/16 05:41:35;;;;;;;;;16.00;15.33;;;;;27.09;76.05;98197.13;4947040;28;101507;-89
2023/07/16 05:44:03;;;;;;;;;17.00;17.00;;;;;27.05;72.97;98185.03;4932609;28;101686;-91
2023/07/16 05:46:30;;;;;;;;;14.00;12.67;;;;;27.19;67.96;98185.75;4935026;28;103110;-89
2023/07/16 05:48:57;;;;;;;;;16.00;16.00;;;;;27.47;71.36;98201.06;4943873;28;101731;-89
2023/07/16 05:51:26;;;;;;;;;16.00;14.67;;;;;27.74;69.89;98210.34;4951123;28;102230;-89
2023/07/16 05:53:53;;;;;;;;;15.67;15.33;;;;;27.93;66.99;98194.19;4952301;28;101881;-87
2023/07/16 05:56:20;;;;;;;;;10.67;10.67;;;;;27.99;63.18;98201.25;4949564;28;103324;-89
2023/07/16 05:58:47;;;;;;;;;15.67;15.00;;;;;28.25;68.68;98201.31;4951299;28;101586;-91
2023/07/16 06:01:14;;;;;;;;;10.67;10.67;;;;;28.37;60.81;98209.81;4954557;28;101574;-86
2023/07/16 06:03:41;;;;;;;;;9.00;8.00;;;;;28.43;59.65;98202.13;4953848;28;102135;-90
2023/07/16 06:06:09;;;;;;;;;12.00;12.00;;;;;28.59;63.50;98195.75;4947023;28;103550;-91
2023/07/16 06:08:36;;;;;;;;;11.00;11.00;;;;;28.93;61.88;98222.75;4936170;28;101537;-86
2023/07/16 06:11:04;;;;;;;;;14.00;13.00;;;;;29.03;63.96;98204.91;4952844;28;101608;-89
2023/07/16 06:13:31;;;;;;;;;13.00;13.00;;;;;29.22;57.54;98208.13;4951745;28;101613;-90
2023/07/16 06:15:58;;;;;;;;;12.00;12.00;;;;;29.23;57.59;98213.34;4949683;28;103553;-91
2023/07/16 06:18:25;;;;;;;;;9.33;9.33;;;;;28.98;58.16;98214.22;4950483;28;101856;-90
2023/07/16 06:20:54;;;;;;;;;11.00;11.00;;;;;29.26;61.16;98228.59;4936564;28;101428;-91
2023/07/16 06:23:21;;;;;;;;;9.33;9.00;;;;;29.45;55.56;98234.59;4950130;28;101515;-90
2023/07/16 06:25:54;;;;;;;;;8.00;8.00;;;;;29.49;54.10;98252.31;4949841;28;103294;-88
2023/07/16 06:28:23;;;;;;;;;9.50;9.25;;;;;29.65;55.38;98247.00;4954382;28;101981;-90
2023/07/16 06:30:52;;;;;;;;;10.00;10.00;;;;;29.91;53.71;98269.19;4962757;28;101956;-90
2023/07/16 06:33:19;;;;;;;;;6.67;6.67;;;;;29.87;52.17;98251.47;4962401;28;101643;-91
2023/07/16 06:35:47;;;;;;;;;9.33;9.00;;;;;30.08;52.34;98264.34;4943729;28;107621;-90
2023/07/16 06:38:15;;;;;;;;;8.67;8.00;;;;;30.14;51.39;98271.38;4947085;28;101685;-86
2023/07/16 06:40:49;;;;;;;;;5.00;5.00;;;;;30.07;51.70;98254.38;4949982;28;101680;-86
2023/07/16 06:43:17;;;;;;;;;10.00;9.00;;;;;30.16;54.64;98279.41;4935361;28;102923;-85
2023/07/16 06:45:44;;;;;;;;;6.00;6.00;;;;;29.90;53.14;98296.25;4947160;28;103549;-86
2023/07/16 06:48:11;;;;;;;;;6.33;6.33;;;;;30.10;54.08;98311.44;4932031;28;101473;-84
2023/07/16 06:50:39;;;;;;;;;9.00;9.00;;;;;29.46;52.93;98307.84;4947260;28;101661;-86
2023/07/16 06:53:06;;;;;;;;;10.00;10.00;;;;;29.03;57.10;98305.13;4949526;28;101927;-85
2023/07/16 06:55:33;;;;;;;;;12.00;12.00;;;;;29.28;56.43;98290.34;4946627;28;103581;-86
2023/07/16 06:58:00;;;;;;;;;11.00;10.00;;;;;29.66;55.37;98318.31;4939727;28;103651;-87
2023/07/16 07:00:28;;;;;;;;;15.00;13.33;;;;;29.29;56.33;98308.69;4954134;28;101945;-84
2023/07/16 07:02:55;;;;;;;;;12.67;12.00;;;;;29.45;55.09;98314.59;4956853;28;101193;-86
2023/07/16 07:05:22;;;;;;;;;12.00;12.00;;;;;29.80;57.06;98304.97;4947024;28;103028;-90
2023/07/16 07:07:49;;;;;;;;;13.00;12.00;;;;;29.61;54.56;98304.56;4953427;28;101915;-83
2023/07/16 07:10:16;;;;;;;;;10.33;10.00;;;;;29.75;52.69;98316.31;4900346;28;103136;-89
2023/07/16 07:12:43;;;;;;;;;16.00;16.00;;;;;29.24;55.70;98320.81;4953800;28;101838;-87
2023/07/16 07:15:10;;;;;;;;;13.33;12.33;;;;;29.45;53.85;98309.81;4950678;28;103026;-84
2023/07/16 07:17:39;;;;;;;;;12.67;12.00;;;;;29.51;55.31;98332.75;4955794;28;101299;-84
2023/07/16 07:20:07;;;;;;;;;10.67;10.67;;;;;29.50;53.76;98331.13;4956240;28;101532;-85
2023/07/16 07:22:34;;;;;;;;;13.00;13.00;;;;;29.56;51.41;98307.50;4955564;28;101689;-85
2023/07/16 07:25:01;;;;;;;;;12.00;12.00;;;;;29.36;52.79;98305.44;4951909;28;103033;-83
2023/07/16 07:27:29;;;;;;;;;15.00;14.00;;;;;29.46;51.52;98327.38;4950034;28;101852;-89
2023/07/16 07:29:56;;;;;;;;;11.00;11.00;;;;;29.86;51.70;98331.50;4957365;28;101625;-88
2023/07/16 07:32:25;;;;;;;;;10.00;9.67;;;;;30.10;52.59;98322.59;4956136;28;102008;-91
2023/07/16 07:34:55;;;;;;;;;9.67;9.67;;;;;30.26;50.70;98320.06;4958152;28;103419;-86
2023/07/16 07:37:22;;;;;;;;;5.00;5.00;;;;;30.58;49.63;98324.94;4938956;28;101629;-85
2023/07/16 07:39:53;;;;;;;;;6.00;6.00;;;;;30.50;48.77;98332.25;4959861;28;101480;-82
2023/07/16 07:42:20;;;;;;;;;7.33;7.33;;;;;30.53;48.71;98333.56;4958811;28;101493;-82
2023/07/16 07:44:51;;;;;;;;;12.00;11.33;;;;;30.14;48.70;98334.69;4951691;28;107954;-87
2023/07/16 07:47:18;;;;;;;;;13.00;13.00;;;;;29.94;49.31;98308.41;4958703;28;101290;-84
2023/07/16 07:49:45;;;;;;;;;13.00;13.00;;;;;30.11;50.32;98327.84;4953401;28;103594;-89
2023/07/16 07:52:13;;;;;;;;;9.33;9.33;;;;;30.19;49.08;98314.19;4958193;28;101750;-86
2023/07/16 07:54:40;;;;;;;;;7.67;7.00;;;;;30.11;50.25;98257.28;4921209;28;103410;-87
2023/07/16 07:57:07;;;;;;;;;6.33;6.33;;;;;30.55;48.33;98311.69;4940655;28;101862;-86
2023/07/16 07:59:34;;;;;;;;;7.00;7.00;;;;;30.69;48.09;98323.41;4955624;28;101654;-88
2023/07/16 08:02:04;;;;;;;;;7.00;6.00;;;;;30.74;49.08;98326.00;4959227;28;101854;-87
2023/07/16 08:04:33;;;;;;;;;9.33;9.33;;;;;30.40;49.23;98295.50;4952625;28;103062;-89
2023/07/16 08:07:03;;;;;;;;;10.00;10.00;;;;;30.35;49.21;98295.72;4939740;28;101150;-87
2023/07/16 08:09:30;;;;;;;;;15.67;14.67;;;;;30.10;48.66;98292.72;4953225;28;101399;-89
2023/07/16 08:11:57;;;;;;;;;12.67;12.00;;;;;30.15;49.28;98305.66;4931660;28;101220;-89
2023/07/16 08:14:25;;;;;;;;;14.33;11.00;;;;;30.02;49.65;98284.41;4943337;28;102717;-88
2023/07/16 08:20:35;;;;;;;;;11.00;10.00;;;;;30.50;51.18;98331.41;4914367;28;102961;-88
2023/07/16 08:23:03;;;;;;;;;13.00;12.00;;;;;30.43;49.82;98319.94;4932031;28;102516;-87
2023/07/16 08:25:30;;;;;;;;;20.00;19.00;;;;;30.21;51.50;98328.63;4921274;28;103209;-88
2023/07/16 08:27:57;;;;;;;;;24.67;24.00;;;;;29.66;52.78;98335.03;4917151;28;101624;-91
2023/07/16 08:30:24;;;;;;;;;24.33;24.33;;;;;29.55;53.53;98342.09;4902231;28;103028;-88
2023/07/16 08:32:51;;;;;;;;;28.33;27.00;;;;;29.00;55.32;98326.06;4943177;28;103572;-87
2023/07/16 08:35:19;;;;;;;;;28.33;27.67;;;;;29.15;56.99;98333.94;4941295;28;103418;-87
2023/07/16 08:37:47;;;;;;;;;27.00;26.67;;;;;29.19;56.55;98321.00;4928298;28;101684;-87
2023/07/16 08:40:14;;;;;;;;;27.67;27.67;;;;;29.32;56.43;98318.38;4951783;28;101510;-90
2023/07/16 08:42:45;;;;;;;;;22.67;22.67;;;;;29.45;55.81;98295.09;4952207;28;101843;-87
2023/07/16 08:45:15;;;;;;;;;24.33;21.33;;;;;29.91;56.45;98314.63;4963947;28;102767;-90
2023/07/16 08:47:42;;;;;;;;;29.67;27.00;;;;;29.40;55.37;98273.00;4938722;28;101768;-88
2023/07/16 08:50:10;;;;;;;;;21.33;20.67;;;;;29.83;55.20;98290.38;4894391;28;101667;-85
2023/07/16 08:52:39;;;;;;;;;23.33;23.33;;;;;29.93;54.32;98345.78;4933429;28;101679;-87
2023/07/16 08:55:07;;;;;;;;;19.00;18.67;;;;;30.14;54.08;98329.94;4948066;28;103593;-93
2023/07/16 08:57:35;;;;;;;;;20.00;19.00;;;;;30.38;53.79;98334.09;4951245;28;101675;-87
2023/07/16 09:00:03;;;;;;;;;17.00;17.00;;;;;30.56;53.50;98332.88;4939020;28;102727;-85
2023/07/16 09:02:31;;;;;;;;;18.00;17.00;;;;;30.66;55.12;98345.63;4952957;28;101623;-87
2023/07/16 09:04:59;;;;;;;;;19.00;18.33;;;;;30.53;55.05;98311.22;4933961;28;103484;-89
2023/07/16 09:07:27;;;;;;;;;25.00;25.00;;;;;30.37;55.03;98326.88;4949481;28;101630;-85
2023/07/16 09:09:58;;;;;;;;;25.67;24.67;;;;;30.49;55.51;98316.66;4950339;28;101751;-89
2023/07/16 09:12:26;;;;;;;;;24.33;24.00;;;;;30.32;55.16;98327.06;4949645;28;102129;-93
2023/07/16 09:14:53;;;;;;;;;30.33;29.33;;;;;30.26;56.51;98326.44;4956468;28;103383;-88
2023/07/16 09:17:24;;;;;;;;;24.33;24.33;;;;;30.38;55.17;98325.72;4960067;28;101428;-88
2023/07/16 09:19:52;;;;;;;;;23.00;23.00;;;;;30.49;57.71;98310.25;4956115;28;102269;-88
2023/07/16 09:22:20;;;;;;;;;16.25;16.00;;;;;30.83;55.13;98317.56;4899463;28;1427751;-89
2023/07/16 09:24:48;;;;;;;;;20.00;18.67;;;;;30.94;56.19;98307.59;4947489;28;103391;-90
2023/07/16 09:27:15;;;;;;;;;18.33;18.33;;;;;31.11;54.43;98313.09;4951525;28;101620;-88
2023/07/16 09:29:42;;;;;;;;;15.67;15.67;;;;;31.24;54.21;98311.97;4932591;28;102468;-89
2023/07/16 09:32:10;;;;;;;;;29.33;29.00;;;;;30.91;55.78;98317.50;4938334;28;101609;-88
2023/07/16 09:34:38;;;;;;;;;23.67;23.33;;;;;30.86;57.34;98317.69;4938076;28;102426;-88
2023/07/16 09:37:06;;;;;;;;;27.33;27.33;;;;;30.52;55.23;98307.63;4944582;28;102661;-89
2023/07/16 09:39:34;;;;;;;;;38.33;34.00;;;;;29.57;57.92;98296.03;4949218;28;101572;-92
2023/07/16 09:42:02;;;;;;;;;34.33;31.33;;;;;29.78;59.61;98298.91;4945139;28;102110;-89
2023/07/16 09:44:31;;;;;;;;;35.00;32.00;;;;;29.99;57.30;98316.56;4890136;28;106998;-93
2023/07/16 09:46:58;;;;;;;;;34.00;31.33;;;;;29.95;59.16;98289.69;4897087;28;101561;-92
2023/07/16 09:49:29;;;;;;;;;27.00;26.33;;;;;29.97;57.44;98291.00;4932012;28;101608;-89
2023/07/16 09:51:57;;;;;;;;;38.33;32.67;;;;;30.21;56.94;98323.84;4894899;28;102274;-90
2023/07/16 09:54:27;;;;;;;;;33.00;30.67;;;;;30.34;57.13;98327.56;4800226;28;103321;-89
2023/07/16 09:56:58;;;;;;;;;27.00;27.00;;;;;30.66;55.96;98318.53;4946025;28;102170;-90
2023/07/16 09:59:29;;;;;;;;;23.33;22.67;;;;;30.94;54.50;98319.59;4911616;28;101832;-89
2023/07/16 10:01:57;;;;;;;;;21.00;21.00;;;;;31.16;55.39;98323.25;4950256;28;101994;-90
2023/07/16 10:04:24;;;;;;;;;20.67;20.33;;;;;31.29;53.71;98319.34;4948413;28;103388;-88
2023/07/16 10:06:58;;;;;;;;;25.33;25.00;;;;;31.35;55.44;98323.53;4948407;28;102042;-92
2023/07/16 10:09:36;;;;;;;;;21.67;21.33;;;;;31.45;53.81;98295.16;4945319;28;102376;-90
2023/07/16 10:12:18;;;;;;;;;23.67;23.33;;;;;31.57;54.22;98319.53;4926094;28;102702;-89
2023/07/16 10:14:50;;;;;;;;;21.67;20.33;;;;;31.41;55.72;98308.19;4791494;28;103312;-87
2023/07/16 10:17:21;;;;;;;;;22.33;21.67;;;;;31.44;55.82;98310.28;4948024;28;101461;-87
2023/07/16 10:19:59;;;;;;;;;26.00;25.67;;;;;31.19;55.28;98289.03;4843455;28;101627;-88
2023/07/16 10:22:33;;;;;;;;;24.33;23.67;;;;;31.46;53.60;98313.56;4847729;28;101654;-89
2023/07/16 10:25:09;;;;;;;;;25.00;24.33;;;;;31.68;53.78;98309.56;4831940;28;102611;-93
2023/07/16 10:27:36;;;;;;;;;17.67;16.67;;;;;31.84;53.18;98291.75;4952273;28;101708;-89
2023/07/16 10:30:05;;;;;;;;;20.33;20.33;;;;;32.13;53.41;98315.13;4805491;28;101884;-94
2023/07/16 10:32:35;;;;;;;;;18.33;18.33;;;;;32.04;52.72;98300.41;4954839;28;102106;-88
2023/07/16 10:35:07;;;;;;;;;17.67;17.67;;;;;32.25;52.79;98315.13;4950143;28;108513;-88
2023/07/16 10:37:34;;;;;;;;;17.67;17.67;;;;;31.96;52.58;98256.59;4935224;28;101932;-86
2023/07/16 10:40:05;;;;;;;;;22.00;21.00;;;;;32.31;51.63;98317.34;4953389;28;101554;-87
2023/07/16 10:42:32;;;;;;;;;25.67;23.67;;;;;32.01;53.18;98323.50;4936346;28;102174;-87
2023/07/16 10:45:04;;;;;;;;;18.67;17.67;;;;;31.89;51.91;98327.06;4873116;28;103438;-86
2023/07/16 10:47:39;;;;;;;;;16.33;16.33;;;;;31.69;53.34;98328.81;4940141;28;101549;-88
2023/07/16 10:50:09;;;;;;;;;25.00;24.33;;;;;30.72;55.96;98338.66;4951954;28;101580;-90
2023/07/16 10:52:39;;;;;;;;;22.00;19.33;;;;;30.72;56.56;98317.13;4942683;28;101940;-87
2023/07/16 10:55:07;;;;;;;;;19.67;19.33;;;;;30.49;56.90;98335.34;4809252;28;104562;-89
2023/07/16 10:57:35;;;;;;;;;22.67;22.00;;;;;30.26;56.82;98336.81;4940389;28;101818;-89
2023/07/16 11:00:03;;;;;;;;;19.67;19.00;;;;;30.06;58.83;98307.69;4848275;28;101837;-91
2023/07/16 11:02:30;;;;;;;;;24.33;23.33;;;;;30.11;56.56;98330.63;4915657;28;103325;-88
2023/07/16 11:05:00;;;;;;;;;19.00;18.67;;;;;30.11;57.00;98316.69;4934561;28;107263;-88
2023/07/16 11:07:27;;;;;;;;;14.33;14.33;;;;;30.16;55.34;98320.44;4932670;28;101786;-88
2023/07/16 11:09:56;;;;;;;;;16.00;14.33;;;;;30.14;54.27;98318.78;4953908;28;101888;-89
2023/07/16 11:12:24;;;;;;;;;12.67;12.00;;;;;30.12;54.98;98309.97;4801100;28;101937;-89
2023/07/16 11:14:54;;;;;;;;;11.33;11.33;;;;;30.28;55.60;98324.13;4893557;28;103436;-87
2023/07/16 11:17:23;;;;;;;;;11.00;11.00;;;;;30.28;56.36;98304.59;4799130;28;101717;-89
2023/07/16 11:19:52;;;;;;;;;16.67;16.00;;;;;30.64;54.93;98323.63;4865369;28;101875;-86
2023/07/16 11:22:24;;;;;;;;;18.00;17.67;;;;;30.47;54.62;98282.69;4947288;28;101919;-90
2023/07/16 11:24:51;;;;;;;;;17.33;16.33;;;;;30.96;54.32;98311.72;4917197;28;103521;-89
2023/07/16 11:27:21;;;;;;;;;15.00;15.00;;;;;30.76;53.24;98295.75;4772143;28;101607;-92